Portada
METAR-TAF:

METAR-TAF

Aeroports :

Aeroport Internacional de Düsseldorf

Düsseldorf, Alemanya

latitud: 51-18N, longitud: 006-46E, altitud: 45 m

Observació

L'informe es va fer fa 20 minuts, a les 22:20 UTC
Vent 7 kt del Nord/Nord-Oest
Temperatura 15°C
Humitat 67%
Pressió 1019 hPa
Visibilitat 10 km o més
Escasses núvols a una alçada de 3000 ft
Núvols disperses a una alçada de 4000 ft

METAR: EDDL 152220Z 34007KT 9999 FEW030 SCT040 15/09 Q1019 NOSIG

Hora: 00:40 (22:40 UTC)

Pronòstic

L'informe es va fer fa 5 hores i 40 minuts, a les 17:00 UTC
Pronòstic vàlid del 15 a les 18 UTC al 16 a les 24 UTC
Vent 5 kt del Nord/Nord-Oest
Visibilitat 10 km o més
Cel ennuvolat a una alçada de 3500 ft

TAF: EDDL 151700Z 1518/1624 33005KT 9999 BKN035

Observacions i pronòstics meteorològics de més de 4000 aeroports (METAR i TAF).

Les estacions disponibles són els punts grocs i vermells al mapa.

Posi el ratolí al punt desitjat per veure el nom de l'estació.

Feu clic per veure les observacions i els pronòstics meteorològics.

Per canviar el mapa: feu clic els botons verds amb una creu de color negre per apropar; al botó verd amb un guió per allunyar la imatge; o en les fletxes verdes per a mapes adjacents.


METAR-TAF: